createdAt,value
2022-08-05T02:00:50.389Z,63.43
2022-08-05T02:01:10.982Z,63.73
2022-08-05T02:01:31.960Z,63.83
2022-08-05T02:01:52.277Z,63.73
2022-08-05T02:02:15.959Z,64.03
2022-08-05T02:02:35.879Z,63.93
2022-08-05T02:02:56.445Z,63.53
2022-08-05T02:03:24.286Z,63.93
2022-08-05T02:03:37.585Z,64.03
2022-08-05T02:04:00.378Z,64.13
2022-08-05T02:04:20.959Z,64.13
2022-08-05T02:04:41.354Z,64.23
2022-08-05T02:05:03.066Z,64.43
2022-08-05T02:05:23.793Z,64.43
2022-08-05T02:05:44.188Z,64.13
2022-08-05T02:06:33.631Z,63.33
2022-08-05T02:06:37.755Z,63.53
2022-08-05T02:06:49.665Z,64.03
2022-08-05T02:07:10.252Z,64.23
2022-08-05T02:07:30.675Z,64.23
2022-08-05T02:08:00.331Z,64.43
2022-08-05T02:08:11.641Z,64.43
2022-08-05T02:08:32.224Z,64.63
2022-08-05T02:08:58.340Z,64.66
2022-08-05T02:09:14.734Z,64.86
2022-08-05T02:09:37.019Z,64.96
2022-08-05T02:09:57.423Z,64.86
2022-08-05T02:10:17.982Z,65.16
2022-08-05T02:10:38.379Z,65.16
2022-08-05T02:10:58.975Z,65.26
2022-08-05T02:11:23.653Z,65.36
2022-08-05T02:11:42.234Z,65.36
2022-08-05T02:12:02.978Z,65.29
2022-08-05T02:12:23.567Z,65.39
2022-08-05T02:12:45.902Z,65.26
2022-08-05T02:13:16.242Z,65.46
2022-08-05T02:13:26.705Z,65.26
2022-08-05T02:13:53.856Z,65.26
2022-08-05T02:14:07.691Z,65.56
2022-08-05T02:14:28.028Z,65.66
2022-08-05T02:14:48.610Z,65.66
2022-08-05T02:15:12.436Z,64.36
2022-08-05T02:15:33.487Z,65.46
2022-08-05T02:15:54.667Z,65.66
2022-08-05T02:16:16.561Z,65.66
2022-08-05T02:16:44.124Z,65.76
2022-08-05T02:16:59.590Z,66.16
2022-08-05T02:17:29.869Z,66.16
2022-08-05T02:18:27.608Z,66.06
2022-08-05T02:18:27.759Z,66.06
2022-08-05T02:18:31.857Z,66.06
2022-08-05T02:18:41.925Z,66.26
2022-08-05T02:19:02.679Z,66.06
2022-08-05T02:19:23.080Z,66.16
2022-08-05T02:19:47.531Z,66.26
2022-08-05T02:20:08.330Z,66.39
2022-08-05T02:20:28.907Z,66.39
2022-08-05T02:20:50.277Z,66.49
2022-08-05T02:21:13.231Z,66.49
2022-08-05T02:21:42.978Z,66.69
2022-08-05T02:21:56.387Z,66.59
2022-08-05T02:22:25.324Z,66.69
2022-08-05T02:22:37.379Z,66.39
2022-08-05T02:22:57.772Z,65.39
2022-08-05T02:23:18.354Z,66.09
2022-08-05T02:23:39.898Z,66.59
2022-08-05T02:24:00.478Z,66.49
2022-08-05T02:24:23.359Z,66.09
2022-08-05T02:24:44.060Z,65.99
2022-08-05T02:25:04.462Z,65.39
2022-08-05T02:25:25.045Z,65.39
2022-08-05T02:25:50.099Z,66.49
2022-08-05T02:26:11.727Z,66.69
2022-08-05T02:26:32.418Z,66.69
2022-08-05T02:26:54.202Z,66.89
2022-08-05T02:27:15.510Z,66.19
2022-08-05T02:27:58.620Z,66.19
2022-08-05T02:27:59.319Z,66.29
2022-08-05T02:28:28.912Z,66.49
2022-08-05T02:28:41.736Z,66.39
2022-08-05T02:29:01.256Z,66.69
2022-08-05T02:29:58.207Z,66.99
2022-08-05T02:29:59.914Z,66.99
2022-08-05T02:30:05.410Z,66.99
2022-08-05T02:30:27.358Z,66.99
2022-08-05T02:30:54.439Z,66.89
2022-08-05T02:31:14.433Z,66.99
2022-08-05T02:31:35.510Z,66.99
2022-08-05T02:31:56.094Z,66.79
2022-08-05T02:32:19.840Z,66.89
2022-08-05T02:32:36.878Z,67.09
2022-08-05T02:33:00.628Z,67.09
2022-08-05T02:33:24.587Z,67.09
2022-08-05T02:33:41.611Z,67.29
2022-08-05T02:34:02.399Z,66.89
2022-08-05T02:34:23.152Z,67.29
2022-08-05T02:34:43.735Z,67.29
2022-08-05T02:35:13.414Z,67.29
2022-08-05T02:35:27.970Z,67.49
2022-08-05T02:35:51.018Z,67.59
2022-08-05T02:36:09.618Z,67.59
2022-08-05T02:36:33.970Z,67.59
2022-08-05T02:36:55.759Z,67.40
2022-08-05T02:37:16.403Z,67.59
2022-08-05T02:37:37.790Z,67.59
2022-08-05T02:38:00.123Z,67.49
2022-08-05T02:38:20.897Z,67.49
2022-08-05T02:38:41.302Z,67.09
2022-08-05T02:39:03.849Z,66.89
2022-08-05T02:39:24.285Z,67.22
2022-08-05T02:39:47.716Z,67.49
2022-08-05T02:40:05.272Z,67.32
2022-08-05T02:40:25.996Z,67.13
2022-08-05T02:40:47.979Z,66.72
2022-08-05T02:41:14.810Z,66.79
2022-08-05T02:41:43.051Z,67.02
2022-08-05T02:42:01.319Z,67.09
2022-08-05T02:42:09.790Z,66.99
2022-08-05T02:42:35.996Z,66.99
2022-08-05T02:42:53.033Z,66.99
2022-08-05T02:43:10.985Z,66.89
2022-08-05T02:43:31.572Z,66.79
2022-08-05T02:44:02.443Z,66.89
2022-08-05T02:44:15.533Z,66.99
2022-08-05T02:44:37.006Z,67.40
2022-08-05T02:44:57.644Z,67.40
2022-08-05T02:45:18.224Z,67.40
2022-08-05T02:45:51.643Z,67.59
2022-08-05T02:45:59.210Z,67.49
2022-08-05T02:46:27.576Z,67.40
2022-08-05T02:46:43.912Z,67.40
2022-08-05T02:47:02.501Z,67.40
2022-08-05T02:47:23.065Z,67.40
2022-08-05T02:48:06.825Z,67.29
2022-08-05T02:48:11.617Z,67.29
2022-08-05T02:48:29.277Z,67.40
2022-08-05T02:48:44.500Z,67.29
2022-08-05T02:49:05.083Z,67.19
2022-08-05T02:49:25.479Z,66.99
2022-08-05T02:49:46.528Z,67.40
2022-08-05T02:50:08.381Z,67.09
2022-08-05T02:50:32.369Z,66.99
2022-08-05T02:50:52.942Z,66.99
2022-08-05T02:51:13.573Z,66.09
2022-08-05T02:52:01.141Z,66.99
2022-08-05T02:52:03.806Z,67.40
2022-08-05T02:52:29.500Z,67.29
2022-08-05T02:52:35.712Z,67.40
2022-08-05T02:52:56.295Z,67.29
2022-08-05T02:53:18.907Z,67.40
2022-08-05T02:53:40.488Z,67.40
2022-08-05T02:54:04.082Z,67.29
2022-08-05T02:54:35.726Z,67.40
2022-08-05T02:54:51.178Z,67.19
2022-08-05T02:55:06.571Z,67.40
2022-08-05T02:55:51.896Z,67.40
2022-08-05T02:55:52.233Z,67.29
2022-08-05T02:56:06.792Z,67.29
2022-08-05T02:56:27.512Z,67.69
2022-08-05T02:56:48.095Z,67.69
2022-08-05T02:57:10.077Z,67.99
2022-08-05T02:58:09.833Z,68.09
2022-08-05T02:58:11.771Z,68.09
2022-08-05T02:58:13.237Z,68.19
2022-08-05T02:58:33.910Z,68.29
2022-08-05T02:58:54.494Z,68.29
2022-08-05T02:59:15.071Z,68.39
2022-08-05T02:59:50.105Z,68.49
2022-08-05T02:59:56.056Z,68.59
2022-08-05T03:00:17.227Z,68.62
2022-08-05T03:00:37.807Z,68.62
2022-08-05T03:00:59.584Z,68.62
2022-08-05T03:01:20.462Z,68.73
2022-08-05T03:01:40.902Z,68.93
2022-08-05T03:02:02.929Z,68.82
2022-08-05T03:02:23.189Z,69.02
2022-08-05T03:02:43.767Z,69.23
2022-08-05T03:03:10.348Z,69.23
2022-08-05T03:03:24.583Z,69.23
2022-08-05T03:04:03.277Z,69.02
2022-08-05T03:04:14.091Z,69.23
2022-08-05T03:04:26.257Z,68.43
2022-08-05T03:04:46.845Z,68.13
2022-08-05T03:05:07.256Z,67.72
2022-08-05T03:06:54.728Z,69.12
2022-08-05T03:06:54.852Z,68.62
2022-08-05T03:06:54.852Z,68.82
2022-08-05T03:06:56.030Z,68.82
2022-08-05T03:06:56.648Z,69.23
2022-08-05T03:07:09.898Z,68.02
2022-08-05T03:08:00.244Z,68.23
2022-08-05T03:08:00.559Z,69.02
2022-08-05T03:08:11.431Z,69.32
2022-08-05T03:08:32.196Z,69.12
2022-08-05T03:08:52.591Z,69.32
2022-08-05T03:09:15.721Z,69.43
2022-08-05T03:09:37.634Z,69.53
2022-08-05T03:09:53.623Z,69.53
2022-08-05T03:10:14.016Z,69.43
2022-08-05T03:10:34.597Z,69.62
2022-08-05T03:11:54.769Z,69.62
2022-08-05T03:11:55.381Z,69.62
2022-08-05T03:11:56.372Z,69.76
2022-08-05T03:11:58.222Z,69.73
2022-08-05T03:12:18.953Z,69.76
2022-08-05T03:12:41.476Z,69.76
2022-08-05T03:13:51.896Z,69.36
2022-08-05T03:14:03.351Z,69.26
2022-08-05T03:14:13.509Z,69.16
2022-08-05T03:14:34.313Z,67.96
2022-08-05T03:14:54.719Z,67.63
2022-08-05T03:15:17.383Z,67.96
2022-08-05T03:15:37.965Z,68.86
2022-08-05T03:15:58.797Z,68.13
2022-08-05T03:16:19.381Z,68.62
2022-08-05T03:16:40.804Z,68.73
2022-08-05T03:17:03.338Z,68.52
2022-08-05T03:17:22.168Z,68.62
2022-08-05T03:17:44.845Z,68.52
2022-08-05T03:18:05.500Z,68.52
2022-08-05T03:18:29.966Z,69.02
2022-08-05T03:18:50.797Z,68.93
2022-08-05T03:19:12.959Z,68.82
2022-08-05T03:19:35.860Z,69.12
2022-08-05T03:19:51.975Z,68.93
2022-08-05T03:20:13.605Z,68.62
2022-08-05T03:20:34.407Z,69.02
2022-08-05T03:20:55.015Z,68.82
2022-08-05T03:21:15.970Z,69.02
2022-08-05T03:21:41.587Z,69.02
2022-08-05T03:21:57.187Z,69.12
2022-08-05T03:22:31.869Z,69.32
2022-08-05T03:22:44.226Z,69.12
2022-08-05T03:22:59.900Z,69.12
2022-08-05T03:23:20.472Z,69.12
2022-08-05T03:23:40.868Z,69.53
2022-08-05T03:24:02.444Z,69.43
2022-08-05T03:24:30.103Z,68.82
2022-08-05T03:24:43.459Z,68.82
2022-08-05T03:25:32.011Z,68.93
2022-08-05T03:25:33.054Z,69.62
2022-08-05T03:26:30.486Z,69.12
2022-08-05T03:26:31.500Z,69.12
2022-08-05T03:26:31.516Z,69.43
2022-08-05T03:26:53.082Z,69.53
2022-08-05T03:27:13.658Z,69.43
2022-08-05T03:27:57.860Z,69.12
2022-08-05T03:27:59.118Z,69.02
2022-08-05T03:28:20.988Z,69.12
2022-08-05T03:28:41.904Z,69.73
2022-08-05T03:29:02.488Z,69.62
2022-08-05T03:29:24.250Z,69.02
2022-08-05T03:30:08.275Z,69.12
2022-08-05T03:30:08.483Z,69.02
2022-08-05T03:30:33.601Z,69.73
2022-08-05T03:30:49.736Z,69.62
2022-08-05T03:31:10.129Z,69.62
2022-08-05T03:31:56.962Z,69.43
2022-08-05T03:31:57.417Z,69.23
2022-08-05T03:32:11.377Z,69.53
2022-08-05T03:32:31.951Z,69.53
2022-08-05T03:32:52.530Z,69.53
2022-08-05T03:33:14.270Z,68.93
2022-08-05T03:33:52.903Z,69.62
2022-08-05T03:33:55.900Z,69.32
2022-08-05T03:34:17.411Z,69.82
2022-08-05T03:34:38.582Z,68.93
2022-08-05T03:35:00.741Z,69.93
2022-08-05T03:35:21.388Z,70.03
2022-08-05T03:35:42.006Z,70.23
2022-08-05T03:36:02.923Z,70.32
2022-08-05T03:36:30.171Z,70.32
2022-08-05T03:36:51.225Z,70.43
2022-08-05T03:37:12.913Z,70.53
2022-08-05T03:37:45.709Z,70.66
2022-08-05T03:37:53.702Z,70.76
2022-08-05T03:38:14.601Z,70.86
2022-08-05T03:38:37.368Z,70.96
2022-08-05T03:38:58.243Z,70.86
2022-08-05T03:39:19.887Z,70.86
2022-08-05T03:39:47.412Z,70.96
2022-08-05T03:40:01.442Z,71.06
2022-08-05T03:40:31.212Z,71.16
2022-08-05T03:40:45.103Z,71.06
2022-08-05T03:41:08.543Z,71.16
2022-08-05T03:41:33.212Z,71.06
2022-08-05T03:41:52.607Z,71.06
2022-08-05T03:42:13.260Z,71.26
2022-08-05T03:42:41.556Z,71.26
2022-08-05T03:42:56.995Z,71.26
2022-08-05T03:44:09.178Z,71.06
2022-08-05T03:44:09.202Z,70.36
2022-08-05T03:44:09.235Z,71.36
2022-08-05T03:44:20.011Z,70.96
2022-08-05T03:44:38.988Z,71.16
2022-08-05T03:44:59.821Z,71.16
2022-08-05T03:45:23.506Z,71.26
2022-08-05T03:45:57.347Z,70.46
2022-08-05T03:46:04.669Z,71.16
2022-08-05T03:46:26.832Z,71.36
2022-08-05T03:46:45.522Z,71.06
2022-08-05T03:47:06.892Z,71.16
2022-08-05T03:47:30.479Z,71.26
2022-08-05T03:47:47.882Z,71.16
2022-08-05T03:48:09.912Z,71.16
2022-08-05T03:48:30.340Z,70.86
2022-08-05T03:48:50.891Z,70.86
2022-08-05T03:49:11.562Z,71.16
2022-08-05T03:49:52.123Z,71.12
2022-08-05T03:49:55.834Z,71.16
2022-08-05T03:50:16.416Z,71.12
2022-08-05T03:50:36.999Z,70.76
2022-08-05T03:50:57.580Z,70.36
2022-08-05T03:52:37.864Z,70.46
2022-08-05T03:52:38.697Z,70.26
2022-08-05T03:52:38.978Z,70.43
2022-08-05T03:52:39.423Z,70.56
2022-08-05T03:54:59.177Z,70.73
2022-08-05T03:55:00.072Z,70.83
2022-08-05T03:55:00.423Z,70.43
2022-08-05T03:55:52.466Z,70.62
2022-08-05T03:55:52.580Z,70.43
2022-08-05T03:55:53.008Z,70.53
2022-08-05T03:55:53.544Z,70.53
2022-08-05T03:56:04.692Z,70.03
2022-08-05T03:56:06.048Z,70.32
2022-08-05T03:56:06.065Z,70.12
2022-08-05T03:56:11.002Z,71.03
2022-08-05T03:56:30.528Z,70.62
2022-08-05T03:56:44.491Z,69.93
2022-08-05T03:57:16.582Z,70.12
2022-08-05T03:57:29.240Z,70.53
2022-08-05T03:57:48.162Z,70.92
2022-08-05T03:58:08.934Z,70.83
2022-08-05T03:58:30.520Z,70.73
2022-08-05T03:58:51.176Z,70.83
2022-08-05T03:59:11.827Z,70.62
2022-08-05T03:59:47.022Z,70.23
2022-08-05T03:59:54.473Z,69.73
2022-08-05T04:00:16.485Z,70.83
2022-08-05T04:00:37.192Z,70.43
2022-08-05T04:00:57.627Z,69.73
2022-08-05T04:01:20.781Z,69.53
2022-08-05T04:01:41.666Z,69.53
2022-08-05T04:02:05.814Z,69.62
2022-08-05T04:02:38.646Z,69.93
2022-08-05T04:02:57.820Z,70.32
2022-08-05T04:03:07.425Z,69.02
2022-08-05T04:03:28.905Z,70.43
2022-08-05T04:04:09.367Z,70.43
2022-08-05T04:04:10.976Z,70.62
2022-08-05T04:04:31.597Z,70.73
2022-08-05T04:04:52.178Z,70.62
2022-08-05T04:05:14.720Z,70.83
2022-08-05T04:05:35.337Z,70.23
2022-08-05T04:05:55.918Z,70.73
2022-08-05T04:06:18.204Z,70.73
2022-08-05T04:06:47.729Z,70.92
2022-08-05T04:07:01.515Z,70.12
2022-08-05T04:07:24.774Z,69.73
2022-08-05T04:07:52.860Z,68.02
2022-08-05T04:08:30.372Z,69.53
2022-08-05T04:08:34.982Z,70.12
2022-08-05T04:08:48.527Z,69.32
2022-08-05T04:09:09.180Z,69.53
2022-08-05T04:09:29.979Z,69.12
2022-08-05T04:09:53.762Z,69.93
2022-08-05T04:10:14.476Z,70.32
2022-08-05T04:10:38.111Z,69.73
2022-08-05T04:10:58.916Z,69.62
2022-08-05T04:11:19.525Z,69.12
2022-08-05T04:11:50.712Z,69.82
2022-08-05T04:12:03.645Z,70.12
2022-08-05T04:12:24.857Z,69.82
2022-08-05T04:12:45.522Z,69.93
2022-08-05T04:13:07.233Z,70.32
2022-08-05T04:13:50.084Z,70.32
2022-08-05T04:13:50.938Z,70.43
2022-08-05T04:14:12.020Z,70.53
2022-08-05T04:14:32.424Z,69.93
2022-08-05T04:14:53.005Z,69.62
2022-08-05T04:15:15.573Z,70.03
2022-08-05T04:15:37.279Z,70.03
2022-08-05T04:16:04.597Z,70.32
2022-08-05T04:16:24.085Z,70.62
2022-08-05T04:16:39.058Z,71.33
2022-08-05T04:16:59.666Z,71.03
2022-08-05T04:17:20.217Z,70.92
2022-08-05T04:17:56.091Z,70.92
2022-08-05T04:18:01.207Z,70.73
2022-08-05T04:18:22.645Z,70.83
2022-08-05T04:18:46.135Z,70.53
2022-08-05T04:19:10.486Z,69.93
2022-08-05T04:19:31.322Z,70.23
2022-08-05T04:19:54.571Z,70.32
2022-08-05T04:20:12.277Z,70.03
2022-08-05T04:20:34.742Z,70.23
2022-08-05T04:20:55.136Z,71.03
2022-08-05T04:22:04.943Z,70.92
2022-08-05T04:22:08.894Z,70.92
2022-08-05T04:22:08.964Z,70.83
2022-08-05T04:22:20.447Z,70.92
2022-08-05T04:22:41.782Z,71.03
2022-08-05T04:23:02.189Z,71.23
2022-08-05T04:24:05.147Z,70.73
2022-08-05T04:24:05.305Z,69.93
2022-08-05T04:24:08.856Z,69.02
2022-08-05T04:24:29.729Z,69.02
2022-08-05T04:24:52.824Z,69.62
2022-08-05T04:25:13.662Z,70.43
2022-08-05T04:25:56.984Z,70.83
2022-08-05T04:26:00.662Z,71.03
2022-08-05T04:26:14.873Z,70.73
2022-08-05T04:26:37.953Z,70.03
2022-08-05T04:26:59.488Z,70.12
2022-08-05T04:27:33.086Z,70.53
2022-08-05T04:27:56.658Z,70.59
2022-08-05T04:28:05.770Z,69.59
2022-08-05T04:28:30.985Z,69.12
2022-08-05T04:28:51.957Z,70.29
2022-08-05T04:29:07.112Z,70.23
2022-08-05T04:29:28.099Z,69.29
2022-08-05T04:29:50.419Z,69.29
2022-08-05T04:30:11.400Z,69.79
2022-08-05T04:30:31.982Z,70.19
2022-08-05T04:30:54.370Z,70.59
2022-08-05T04:31:14.948Z,69.89
2022-08-05T04:31:38.699Z,69.99
2022-08-05T04:32:00.022Z,70.29
2022-08-05T04:32:31.165Z,68.79
2022-08-05T04:32:41.448Z,70.99
2022-08-05T04:33:02.782Z,70.89
2022-08-05T04:33:54.716Z,70.89
2022-08-05T04:34:17.510Z,71.19
2022-08-05T04:34:19.715Z,69.89
2022-08-05T04:34:33.427Z,69.69
2022-08-05T04:34:44.980Z,69.69
2022-08-05T04:35:05.891Z,69.99
2022-08-05T04:35:26.495Z,70.59
2022-08-05T04:36:09.419Z,70.49
2022-08-05T04:36:10.840Z,70.79
2022-08-05T04:36:46.570Z,70.09
2022-08-05T04:36:50.176Z,70.69
2022-08-05T04:37:11.054Z,71.09
2022-08-05T04:38:00.979Z,70.99
2022-08-05T04:38:01.559Z,70.49
2022-08-05T04:38:12.436Z,70.69
2022-08-05T04:38:39.568Z,70.49
2022-08-05T04:39:00.792Z,70.39
2022-08-05T04:39:21.725Z,70.29
2022-08-05T04:39:42.468Z,70.09
2022-08-05T04:40:03.095Z,70.49
2022-08-05T04:40:24.187Z,69.99
2022-08-05T04:40:50.673Z,70.69
2022-08-05T04:41:05.176Z,70.99
2022-08-05T04:41:34.127Z,70.29
2022-08-05T04:41:48.500Z,70.49
2022-08-05T04:42:11.445Z,70.19
2022-08-05T04:42:32.117Z,69.66
2022-08-05T04:42:52.704Z,69.66
2022-08-05T04:43:16.624Z,69.56
2022-08-05T04:43:33.683Z,69.46
2022-08-05T04:43:54.266Z,70.16
2022-08-05T04:44:20.984Z,70.46
2022-08-05T04:44:35.872Z,67.86
2022-08-05T04:44:57.173Z,69.46
2022-08-05T04:45:31.054Z,69.76
2022-08-05T04:45:48.777Z,70.16
2022-08-05T04:46:02.323Z,70.96
2022-08-05T04:46:27.858Z,70.76
2022-08-05T04:46:43.357Z,70.36
2022-08-05T04:47:09.778Z,70.26
2022-08-05T04:47:30.826Z,70.76
2022-08-05T04:47:51.235Z,70.56
2022-08-05T04:48:18.387Z,70.56
2022-08-05T04:48:33.387Z,70.06
2022-08-05T04:48:53.970Z,70.36
2022-08-05T04:49:14.772Z,70.86
2022-08-05T04:49:39.042Z,70.56
2022-08-05T04:50:02.895Z,70.56
2022-08-05T04:50:16.237Z,69.86
2022-08-05T04:50:37.494Z,69.66
2022-08-05T04:51:03.722Z,70.36
2022-08-05T04:51:17.453Z,71.56
2022-08-05T04:51:38.544Z,70.86
2022-08-05T04:52:00.454Z,70.66
2022-08-05T04:52:21.252Z,70.66
2022-08-05T04:52:42.003Z,70.86
2022-08-05T04:53:05.357Z,70.66
2022-08-05T04:53:29.011Z,68.66
2022-08-05T04:53:49.157Z,68.96
2022-08-05T04:54:09.830Z,68.73
2022-08-05T04:54:30.381Z,70.12
2022-08-05T04:54:50.971Z,71.83
2022-08-05T04:55:15.095Z,71.12
2022-08-05T04:56:14.625Z,70.83
2022-08-05T04:56:33.934Z,70.92
2022-08-05T04:56:34.897Z,70.62
2022-08-05T04:56:37.514Z,70.42
2022-08-05T04:56:59.806Z,70.53
2022-08-05T04:57:20.397Z,70.42
2022-08-05T04:57:40.973Z,70.42
2022-08-05T04:58:01.376Z,70.32
2022-08-05T04:58:21.841Z,70.23
2022-08-05T04:58:42.177Z,70.12
2022-08-05T04:59:24.147Z,69.93
2022-08-05T04:59:38.546Z,70.03
2022-08-05T04:59:43.554Z,70.03
2022-08-05T05:00:08.564Z,69.93
2022-08-05T05:00:29.181Z,70.12
2022-08-05T05:00:50.996Z,70.12
2022-08-05T05:01:11.654Z,70.03
2022-08-05T05:01:33.653Z,70.12
2022-08-05T05:02:35.046Z,70.03
2022-08-05T05:02:36.203Z,69.99
2022-08-05T05:02:37.225Z,70.12
2022-08-05T05:02:53.946Z,70.19
2022-08-05T05:03:14.560Z,69.89
2022-08-05T05:03:42.072Z,69.89
2022-08-05T05:03:55.347Z,69.79
2022-08-05T05:04:17.414Z,69.79
2022-08-05T05:04:38.122Z,69.79
2022-08-05T05:05:02.276Z,69.89
2022-08-05T05:05:28.944Z,70.09
2022-08-05T05:06:37.051Z,69.99
2022-08-05T05:06:38.738Z,69.89
2022-08-05T05:06:39.325Z,69.89
2022-08-05T05:06:49.154Z,69.79
2022-08-05T05:07:01.350Z,69.99
2022-08-05T05:07:23.954Z,69.99
2022-08-05T05:07:52.966Z,69.99
2022-08-05T05:08:03.773Z,69.99
2022-08-05T05:08:26.709Z,70.29
2022-08-05T05:08:44.846Z,70.09
2022-08-05T05:09:05.639Z,69.99
2022-08-05T05:09:26.224Z,69.99
2022-08-05T05:09:46.812Z,69.89
2022-08-05T05:10:07.390Z,70.09
2022-08-05T05:10:29.614Z,70.09
2022-08-05T05:10:55.728Z,70.09
2022-08-05T05:11:10.882Z,70.29
2022-08-05T05:11:42.023Z,70.29
2022-08-05T05:11:55.658Z,70.19
2022-08-05T05:12:12.018Z,70.39
2022-08-05T05:12:32.588Z,70.39
2022-08-05T05:12:53.171Z,70.19
2022-08-05T05:13:13.748Z,70.49
2022-08-05T05:13:43.525Z,70.39
2022-08-05T05:13:55.167Z,70.29
2022-08-05T05:14:16.034Z,70.19
2022-08-05T05:14:36.870Z,70.29
2022-08-05T05:14:57.451Z,70.29
2022-08-05T05:15:56.546Z,70.39
2022-08-05T05:15:56.739Z,70.29
2022-08-05T05:16:02.036Z,70.29
2022-08-05T05:16:19.713Z,70.39
2022-08-05T05:16:40.399Z,70.49
2022-08-05T05:17:00.982Z,70.39
2022-08-05T05:17:24.536Z,70.49
2022-08-05T05:17:56.205Z,70.49
2022-08-05T05:18:05.893Z,70.29
2022-08-05T05:18:31.098Z,70.29
2022-08-05T05:19:08.976Z,70.29
2022-08-05T05:19:19.300Z,70.29
2022-08-05T05:19:36.992Z,70.09
2022-08-05T05:19:47.886Z,70.09
2022-08-05T05:20:08.469Z,70.09
2022-08-05T05:20:29.106Z,70.39
2022-08-05T05:20:49.767Z,70.29
2022-08-05T05:21:11.041Z,70.29
2022-08-05T05:21:33.113Z,70.19
2022-08-05T05:21:55.603Z,70.39
2022-08-05T05:22:23.406Z,70.26
2022-08-05T05:22:40.953Z,70.19
2022-08-05T05:22:57.090Z,70.19
2022-08-05T05:23:19.889Z,70.36
2022-08-05T05:24:03.667Z,69.66
2022-08-05T05:24:03.696Z,70.06
2022-08-05T05:24:21.564Z,70.16
2022-08-05T05:24:56.310Z,70.46
2022-08-05T05:25:14.810Z,70.46
2022-08-05T05:25:32.653Z,70.46
2022-08-05T05:25:43.356Z,70.46
2022-08-05T05:26:08.342Z,70.56
2022-08-05T05:26:33.034Z,70.36
2022-08-05T05:26:53.688Z,70.16
2022-08-05T05:27:17.442Z,70.16
2022-08-05T05:27:44.544Z,70.26
2022-08-05T05:27:58.427Z,69.76
2022-08-05T05:28:19.012Z,69.76
2022-08-05T05:28:42.851Z,70.36
2022-08-05T05:29:14.224Z,69.96
2022-08-05T05:30:03.586Z,70.26
2022-08-05T05:30:03.787Z,70.06
2022-08-05T05:30:06.919Z,70.26
2022-08-05T05:30:30.854Z,69.86
2022-08-05T05:30:49.763Z,68.96
2022-08-05T05:31:10.485Z,70.06
2022-08-05T05:31:58.385Z,69.76
2022-08-05T05:32:19.364Z,69.76
2022-08-05T05:32:41.684Z,69.76
2022-08-05T05:33:13.943Z,69.86
2022-08-05T05:33:23.732Z,70.06
2022-08-05T05:34:01.753Z,70.06
2022-08-05T05:34:04.319Z,70.46
2022-08-05T05:34:26.667Z,69.06
2022-08-05T05:34:47.700Z,70.36
2022-08-05T05:35:07.827Z,70.26
2022-08-05T05:35:31.610Z,69.86
2022-08-05T05:35:49.632Z,69.92
2022-08-05T05:36:10.209Z,70.16
2022-08-05T05:36:30.901Z,69.96
2022-08-05T05:36:52.196Z,70.23
2022-08-05T05:37:12.781Z,69.92
2022-08-05T05:37:37.467Z,70.03
2022-08-05T05:38:00.230Z,69.92
2022-08-05T05:38:14.757Z,69.92
2022-08-05T05:38:35.164Z,69.92
2022-08-05T05:38:55.814Z,69.73
2022-08-05T05:39:16.432Z,69.62
2022-08-05T05:39:36.816Z,70.03
2022-08-05T05:39:57.745Z,70.23
2022-08-05T05:40:18.456Z,69.43
2022-08-05T05:40:43.822Z,70.03
2022-08-05T05:41:00.803Z,69.73
2022-08-05T05:41:22.268Z,69.73
2022-08-05T05:41:44.499Z,69.73
2022-08-05T05:42:04.889Z,69.62
2022-08-05T05:42:25.484Z,69.32
2022-08-05T05:42:47.073Z,69.62
2022-08-05T05:43:08.675Z,69.53
2022-08-05T05:43:57.154Z,69.43
2022-08-05T05:43:58.579Z,69.62
2022-08-05T05:44:35.680Z,69.43
2022-08-05T05:44:36.656Z,69.62
2022-08-05T05:44:50.867Z,69.13
2022-08-05T05:45:11.620Z,69.53
2022-08-05T05:45:32.015Z,69.62
2022-08-05T05:45:52.598Z,69.53
2022-08-05T05:46:17.709Z,69.53
2022-08-05T05:46:33.590Z,69.69
2022-08-05T05:46:53.993Z,70.09
2022-08-05T05:47:22.072Z,68.63
2022-08-05T05:48:05.321Z,69.20
2022-08-05T05:48:06.501Z,69.13
2022-08-05T05:48:18.003Z,69.43
2022-08-05T05:48:38.410Z,69.29
2022-08-05T05:48:59.940Z,69.69
2022-08-05T05:49:22.497Z,69.69
2022-08-05T05:49:43.297Z,69.69
2022-08-05T05:50:04.227Z,69.59
2022-08-05T05:50:24.831Z,69.69
2022-08-05T05:50:46.424Z,69.79
2022-08-05T05:51:15.496Z,69.59
2022-08-05T05:51:27.807Z,68.60
2022-08-05T05:51:49.950Z,69.09
2022-08-05T05:52:20.194Z,68.00
2022-08-05T05:52:34.793Z,67.60
2022-08-05T05:52:52.195Z,68.10
2022-08-05T05:53:20.993Z,68.30
2022-08-05T05:53:33.183Z,68.19
2022-08-05T05:53:58.079Z,68.49
2022-08-05T05:54:13.995Z,68.79
2022-08-05T05:54:50.607Z,68.19
2022-08-05T05:54:58.015Z,68.40
2022-08-05T05:55:18.759Z,69.29
2022-08-05T05:55:39.342Z,69.59
2022-08-05T05:56:01.385Z,69.59
2022-08-05T05:56:26.195Z,69.29
2022-08-05T05:56:44.160Z,68.90
2022-08-05T05:57:04.557Z,69.49
2022-08-05T05:57:25.146Z,69.39
2022-08-05T05:57:52.813Z,69.66
2022-08-05T05:58:05.786Z,69.46
2022-08-05T05:58:30.246Z,69.26
2022-08-05T05:58:46.771Z,69.06
2022-08-05T05:59:07.757Z,69.36
2022-08-05T05:59:28.753Z,69.26
2022-08-05T05:59:49.351Z,69.16
2022-08-05T06:00:12.916Z,69.26
2022-08-05T06:00:34.173Z,69.16
2022-08-05T06:00:53.893Z,69.26
2022-08-05T06:01:15.154Z,68.26
2022-08-05T06:01:38.107Z,68.66
2022-08-05T06:01:57.853Z,69.06
2022-08-05T06:02:16.909Z,68.66
2022-08-05T06:02:37.881Z,68.07
2022-08-05T06:02:58.441Z,68.46
2022-08-05T06:03:40.537Z,68.37
2022-08-05T06:04:00.890Z,68.56
2022-08-05T06:04:01.984Z,68.16
2022-08-05T06:04:24.330Z,67.17
2022-08-05T06:04:49.195Z,64.67
2022-08-05T06:05:10.506Z,67.27
2022-08-05T06:05:30.376Z,67.36
2022-08-05T06:05:54.146Z,67.54
2022-08-05T06:06:11.049Z,67.13
2022-08-05T06:06:34.698Z,67.24
2022-08-05T06:06:55.559Z,66.94
2022-08-05T06:07:16.016Z,66.83
2022-08-05T06:07:41.515Z,67.73
2022-08-05T06:07:57.833Z,67.83
2022-08-05T06:08:32.487Z,67.83
2022-08-05T06:08:37.773Z,67.73
2022-08-05T06:09:00.306Z,67.54
2022-08-05T06:09:35.378Z,67.43
2022-08-05T06:10:00.169Z,67.54
2022-08-05T06:10:05.780Z,67.54
2022-08-05T06:10:21.884Z,66.83
2022-08-05T06:10:52.533Z,67.24
2022-08-05T06:11:04.735Z,67.33
2022-08-05T06:11:29.065Z,67.43
2022-08-05T06:12:02.006Z,67.73
2022-08-05T06:12:10.449Z,67.63
2022-08-05T06:12:32.695Z,67.43
2022-08-05T06:12:53.963Z,67.03
2022-08-05T06:13:14.564Z,67.13
2022-08-05T06:13:40.851Z,67.13
2022-08-05T06:13:55.599Z,67.24
2022-08-05T06:14:16.145Z,66.74
2022-08-05T06:14:36.528Z,66.74
2022-08-05T06:15:00.735Z,66.14
2022-08-05T06:15:23.940Z,66.53
2022-08-05T06:16:29.706Z,66.71
2022-08-05T06:16:30.333Z,67.00
2022-08-05T06:16:30.546Z,66.80
2022-08-05T06:16:42.922Z,66.80
2022-08-05T06:17:22.190Z,66.91
2022-08-05T06:17:24.523Z,67.00
2022-08-05T06:17:52.692Z,66.80
2022-08-05T06:18:04.550Z,66.71
2022-08-05T06:18:31.286Z,66.71
2022-08-05T06:18:45.529Z,66.50
2022-08-05T06:19:07.918Z,66.61
2022-08-05T06:19:35.293Z,66.31
2022-08-05T06:19:56.970Z,66.01
2022-08-05T06:20:18.709Z,66.50
2022-08-05T06:20:29.870Z,66.71
2022-08-05T06:20:50.454Z,66.61
2022-08-05T06:21:18.549Z,66.61
2022-08-05T06:21:42.215Z,66.61
2022-08-05T06:21:59.785Z,66.91
2022-08-05T06:22:20.798Z,66.71
2022-08-05T06:22:41.378Z,66.61
2022-08-05T06:23:04.014Z,66.31
2022-08-05T06:23:24.761Z,66.71
2022-08-05T06:23:45.344Z,66.61
2022-08-05T06:24:06.099Z,67.00
2022-08-05T06:24:28.345Z,67.10
2022-08-05T06:24:49.530Z,66.80
2022-08-05T06:25:59.717Z,66.31
2022-08-05T06:26:12.219Z,67.10
2022-08-05T06:26:12.919Z,66.11
2022-08-05T06:26:13.538Z,66.41
2022-08-05T06:26:33.783Z,67.00
2022-08-05T06:26:55.685Z,66.71
2022-08-05T06:27:17.190Z,67.10
2022-08-05T06:28:10.446Z,67.10
2022-08-05T06:28:11.204Z,66.80
2022-08-05T06:28:21.275Z,67.10
2022-08-05T06:28:42.387Z,67.00
2022-08-05T06:29:03.704Z,67.00
2022-08-05T06:29:42.789Z,66.80
2022-08-05T06:29:49.268Z,67.10
2022-08-05T06:30:17.887Z,67.00
2022-08-05T06:30:25.205Z,66.91
2022-08-05T06:30:44.971Z,66.91
2022-08-05T06:31:11.046Z,66.94
2022-08-05T06:31:30.612Z,67.03
2022-08-05T06:31:46.879Z,67.03
2022-08-05T06:32:25.393Z,66.94
2022-08-05T06:32:29.137Z,67.13
2022-08-05T06:32:50.830Z,67.13